sensor_id;sensor_type;location;lat;lon;timestamp;P1;durP1;ratioP1;P2;durP2;ratioP2
11921;SDS011;6021;51.182;3.160;2023-02-17T00:01:35;13.47;;;9.47;;
11921;SDS011;6021;51.182;3.160;2023-02-17T00:04:03;15.20;;;10.27;;
11921;SDS011;6021;51.182;3.160;2023-02-17T00:06:32;13.13;;;9.20;;
11921;SDS011;6021;51.182;3.160;2023-02-17T00:09:00;12.50;;;9.03;;
11921;SDS011;6021;51.182;3.160;2023-02-17T00:11:29;12.93;;;9.40;;
11921;SDS011;6021;51.182;3.160;2023-02-17T00:13:57;13.87;;;9.30;;
11921;SDS011;6021;51.182;3.160;2023-02-17T00:16:26;11.97;;;8.77;;
11921;SDS011;6021;51.182;3.160;2023-02-17T00:18:56;14.73;;;9.27;;
11921;SDS011;6021;51.182;3.160;2023-02-17T00:21:27;13.30;;;9.30;;
11921;SDS011;6021;51.182;3.160;2023-02-17T00:23:58;12.50;;;9.03;;
11921;SDS011;6021;51.182;3.160;2023-02-17T00:26:26;13.67;;;9.10;;
11921;SDS011;6021;51.182;3.160;2023-02-17T00:28:56;13.20;;;8.77;;
11921;SDS011;6021;51.182;3.160;2023-02-17T00:31:26;15.07;;;9.43;;
11921;SDS011;6021;51.182;3.160;2023-02-17T00:33:54;13.13;;;8.77;;
11921;SDS011;6021;51.182;3.160;2023-02-17T00:36:23;15.47;;;9.77;;
11921;SDS011;6021;51.182;3.160;2023-02-17T00:38:53;16.30;;;12.60;;
11921;SDS011;6021;51.182;3.160;2023-02-17T00:41:23;14.33;;;9.63;;
11921;SDS011;6021;51.182;3.160;2023-02-17T00:43:53;19.00;;;10.70;;
11921;SDS011;6021;51.182;3.160;2023-02-17T00:46:21;14.13;;;10.20;;
11921;SDS011;6021;51.182;3.160;2023-02-17T00:48:51;18.13;;;10.30;;
11921;SDS011;6021;51.182;3.160;2023-02-17T00:51:22;17.60;;;10.80;;
11921;SDS011;6021;51.182;3.160;2023-02-17T00:53:51;16.33;;;9.67;;
11921;SDS011;6021;51.182;3.160;2023-02-17T00:56:20;17.53;;;10.53;;
11921;SDS011;6021;51.182;3.160;2023-02-17T00:58:48;20.97;;;13.13;;
11921;SDS011;6021;51.182;3.160;2023-02-17T01:01:16;15.20;;;10.37;;
11921;SDS011;6021;51.182;3.160;2023-02-17T01:03:45;18.00;;;10.43;;
11921;SDS011;6021;51.182;3.160;2023-02-17T01:06:17;18.77;;;9.90;;
11921;SDS011;6021;51.182;3.160;2023-02-17T01:08:51;15.33;;;9.73;;
11921;SDS011;6021;51.182;3.160;2023-02-17T01:11:24;16.43;;;10.00;;
11921;SDS011;6021;51.182;3.160;2023-02-17T01:13:51;14.60;;;9.77;;
11921;SDS011;6021;51.182;3.160;2023-02-17T01:16:24;15.87;;;9.30;;
11921;SDS011;6021;51.182;3.160;2023-02-17T01:19:01;14.13;;;9.03;;
11921;SDS011;6021;51.182;3.160;2023-02-17T01:21:31;14.83;;;11.17;;
11921;SDS011;6021;51.182;3.160;2023-02-17T01:24:00;16.03;;;11.50;;
11921;SDS011;6021;51.182;3.160;2023-02-17T01:26:31;13.93;;;10.63;;
11921;SDS011;6021;51.182;3.160;2023-02-17T01:29:01;16.23;;;11.73;;
11921;SDS011;6021;51.182;3.160;2023-02-17T01:31:30;15.93;;;12.20;;
11921;SDS011;6021;51.182;3.160;2023-02-17T01:34:00;17.30;;;12.03;;
11921;SDS011;6021;51.182;3.160;2023-02-17T01:36:30;15.67;;;10.40;;
11921;SDS011;6021;51.182;3.160;2023-02-17T01:38:59;11.97;;;8.10;;
11921;SDS011;6021;51.182;3.160;2023-02-17T01:41:27;13.13;;;10.37;;
11921;SDS011;6021;51.182;3.160;2023-02-17T01:44:03;13.33;;;10.43;;
11921;SDS011;6021;51.182;3.160;2023-02-17T01:46:34;12.23;;;7.90;;
11921;SDS011;6021;51.182;3.160;2023-02-17T01:49:03;12.60;;;10.40;;
11921;SDS011;6021;51.182;3.160;2023-02-17T01:51:43;14.40;;;10.23;;
11921;SDS011;6021;51.182;3.160;2023-02-17T01:54:15;14.80;;;10.20;;
11921;SDS011;6021;51.182;3.160;2023-02-17T01:56:45;15.20;;;10.37;;
11921;SDS011;6021;51.182;3.160;2023-02-17T01:59:17;15.10;;;10.17;;
11921;SDS011;6021;51.182;3.160;2023-02-17T02:01:48;13.97;;;9.53;;
11921;SDS011;6021;51.182;3.160;2023-02-17T02:04:20;13.13;;;9.03;;
11921;SDS011;6021;51.182;3.160;2023-02-17T02:06:50;14.67;;;9.70;;
11921;SDS011;6021;51.182;3.160;2023-02-17T02:09:20;11.73;;;6.93;;
11921;SDS011;6021;51.182;3.160;2023-02-17T02:11:52;13.10;;;8.67;;
11921;SDS011;6021;51.182;3.160;2023-02-17T02:14:20;15.77;;;9.57;;
11921;SDS011;6021;51.182;3.160;2023-02-17T02:31:10;11.50;;;7.40;;
11921;SDS011;6021;51.182;3.160;2023-02-17T02:33:58;11.90;;;7.70;;
11921;SDS011;6021;51.182;3.160;2023-02-17T02:36:30;11.73;;;7.90;;
11921;SDS011;6021;51.182;3.160;2023-02-17T02:41:41;13.00;;;7.87;;
11921;SDS011;6021;51.182;3.160;2023-02-17T02:44:14;11.77;;;7.90;;
11921;SDS011;6021;51.182;3.160;2023-02-17T02:46:44;11.90;;;5.60;;
11921;SDS011;6021;51.182;3.160;2023-02-17T02:49:14;13.57;;;7.50;;
11921;SDS011;6021;51.182;3.160;2023-02-17T02:51:48;10.97;;;7.77;;
11921;SDS011;6021;51.182;3.160;2023-02-17T02:57:23;10.33;;;7.17;;
11921;SDS011;6021;51.182;3.160;2023-02-17T03:02:58;11.80;;;7.13;;
11921;SDS011;6021;51.182;3.160;2023-02-17T03:05:39;11.23;;;7.03;;
11921;SDS011;6021;51.182;3.160;2023-02-17T03:08:13;10.17;;;6.30;;
11921;SDS011;6021;51.182;3.160;2023-02-17T03:10:50;11.03;;;6.47;;
11921;SDS011;6021;51.182;3.160;2023-02-17T03:13:20;11.77;;;6.73;;
11921;SDS011;6021;51.182;3.160;2023-02-17T03:15:48;10.27;;;6.67;;
11921;SDS011;6021;51.182;3.160;2023-02-17T03:18:17;10.53;;;6.57;;
11921;SDS011;6021;51.182;3.160;2023-02-17T03:20:53;8.67;;;6.57;;
11921;SDS011;6021;51.182;3.160;2023-02-17T03:23:23;10.07;;;6.23;;
11921;SDS011;6021;51.182;3.160;2023-02-17T03:25:52;11.23;;;6.53;;
11921;SDS011;6021;51.182;3.160;2023-02-17T03:28:20;9.20;;;6.40;;
11921;SDS011;6021;51.182;3.160;2023-02-17T03:30:49;9.40;;;6.10;;
11921;SDS011;6021;51.182;3.160;2023-02-17T03:33:17;8.43;;;5.70;;
11921;SDS011;6021;51.182;3.160;2023-02-17T03:35:45;8.83;;;5.67;;
11921;SDS011;6021;51.182;3.160;2023-02-17T03:38:14;9.00;;;5.70;;
11921;SDS011;6021;51.182;3.160;2023-02-17T03:40:42;9.40;;;5.80;;
11921;SDS011;6021;51.182;3.160;2023-02-17T03:43:11;13.00;;;6.50;;
11921;SDS011;6021;51.182;3.160;2023-02-17T03:45:39;10.00;;;6.07;;
11921;SDS011;6021;51.182;3.160;2023-02-17T03:48:07;11.17;;;5.97;;
11921;SDS011;6021;51.182;3.160;2023-02-17T03:50:36;10.40;;;6.30;;
11921;SDS011;6021;51.182;3.160;2023-02-17T03:53:04;8.53;;;5.70;;
11921;SDS011;6021;51.182;3.160;2023-02-17T03:55:33;10.13;;;6.27;;
11921;SDS011;6021;51.182;3.160;2023-02-17T03:58:01;9.00;;;6.10;;
11921;SDS011;6021;51.182;3.160;2023-02-17T04:00:29;8.97;;;6.07;;
11921;SDS011;6021;51.182;3.160;2023-02-17T04:02:58;9.57;;;6.37;;
11921;SDS011;6021;51.182;3.160;2023-02-17T04:05:26;11.37;;;6.03;;
11921;SDS011;6021;51.182;3.160;2023-02-17T04:07:54;8.83;;;4.70;;
11921;SDS011;6021;51.182;3.160;2023-02-17T04:10:23;9.83;;;4.30;;
11921;SDS011;6021;51.182;3.160;2023-02-17T04:12:51;9.97;;;4.83;;
11921;SDS011;6021;51.182;3.160;2023-02-17T04:15:19;7.20;;;4.80;;
11921;SDS011;6021;51.182;3.160;2023-02-17T04:17:47;9.30;;;4.40;;
11921;SDS011;6021;51.182;3.160;2023-02-17T04:20:16;9.13;;;4.63;;
11921;SDS011;6021;51.182;3.160;2023-02-17T04:22:44;8.47;;;4.47;;
11921;SDS011;6021;51.182;3.160;2023-02-17T04:25:12;9.97;;;5.97;;
11921;SDS011;6021;51.182;3.160;2023-02-17T04:27:41;8.43;;;5.77;;
11921;SDS011;6021;51.182;3.160;2023-02-17T04:30:09;6.43;;;4.10;;
11921;SDS011;6021;51.182;3.160;2023-02-17T04:32:38;7.50;;;5.00;;
11921;SDS011;6021;51.182;3.160;2023-02-17T04:35:07;7.37;;;3.90;;
11921;SDS011;6021;51.182;3.160;2023-02-17T04:37:35;7.25;;;3.67;;
11921;SDS011;6021;51.182;3.160;2023-02-17T04:40:04;6.63;;;3.80;;
11921;SDS011;6021;51.182;3.160;2023-02-17T04:42:35;5.43;;;3.43;;
11921;SDS011;6021;51.182;3.160;2023-02-17T04:45:04;9.03;;;4.00;;
11921;SDS011;6021;51.182;3.160;2023-02-17T04:47:33;4.37;;;3.50;;
11921;SDS011;6021;51.182;3.160;2023-02-17T04:50:02;7.83;;;3.80;;
11921;SDS011;6021;51.182;3.160;2023-02-17T04:52:32;7.47;;;4.63;;
11921;SDS011;6021;51.182;3.160;2023-02-17T04:55:00;6.93;;;3.70;;
11921;SDS011;6021;51.182;3.160;2023-02-17T04:57:29;4.70;;;3.40;;
11921;SDS011;6021;51.182;3.160;2023-02-17T04:59:57;5.23;;;3.60;;
11921;SDS011;6021;51.182;3.160;2023-02-17T05:02:26;3.53;;;2.90;;
11921;SDS011;6021;51.182;3.160;2023-02-17T05:04:55;3.97;;;3.57;;
11921;SDS011;6021;51.182;3.160;2023-02-17T05:07:24;3.93;;;2.80;;
11921;SDS011;6021;51.182;3.160;2023-02-17T05:09:53;4.20;;;3.80;;
11921;SDS011;6021;51.182;3.160;2023-02-17T05:12:22;4.50;;;4.10;;
11921;SDS011;6021;51.182;3.160;2023-02-17T05:14:50;3.77;;;3.47;;
11921;SDS011;6021;51.182;3.160;2023-02-17T05:17:19;4.67;;;3.70;;
11921;SDS011;6021;51.182;3.160;2023-02-17T05:19:47;4.30;;;3.90;;
11921;SDS011;6021;51.182;3.160;2023-02-17T05:22:15;4.40;;;4.00;;
11921;SDS011;6021;51.182;3.160;2023-02-17T05:24:45;4.57;;;4.10;;
11921;SDS011;6021;51.182;3.160;2023-02-17T05:27:14;4.33;;;3.60;;
11921;SDS011;6021;51.182;3.160;2023-02-17T05:29:42;4.17;;;3.67;;
11921;SDS011;6021;51.182;3.160;2023-02-17T05:32:11;3.83;;;3.43;;
11921;SDS011;6021;51.182;3.160;2023-02-17T05:34:44;3.30;;;2.57;;
11921;SDS011;6021;51.182;3.160;2023-02-17T05:37:12;4.90;;;4.20;;
11921;SDS011;6021;51.182;3.160;2023-02-17T05:39:40;4.30;;;3.90;;
11921;SDS011;6021;51.182;3.160;2023-02-17T05:42:09;4.23;;;3.63;;
11921;SDS011;6021;51.182;3.160;2023-02-17T05:44:37;3.73;;;3.40;;
11921;SDS011;6021;51.182;3.160;2023-02-17T05:47:05;4.67;;;2.97;;
11921;SDS011;6021;51.182;3.160;2023-02-17T05:49:34;3.90;;;2.73;;
11921;SDS011;6021;51.182;3.160;2023-02-17T05:52:04;2.67;;;2.47;;
11921;SDS011;6021;51.182;3.160;2023-02-17T05:54:32;3.40;;;2.80;;
11921;SDS011;6021;51.182;3.160;2023-02-17T05:57:01;2.70;;;2.50;;
11921;SDS011;6021;51.182;3.160;2023-02-17T05:59:29;3.10;;;2.60;;
11921;SDS011;6021;51.182;3.160;2023-02-17T06:01:57;3.00;;;2.53;;
11921;SDS011;6021;51.182;3.160;2023-02-17T06:04:26;3.07;;;2.70;;
11921;SDS011;6021;51.182;3.160;2023-02-17T06:06:54;3.50;;;2.70;;
11921;SDS011;6021;51.182;3.160;2023-02-17T06:09:23;2.60;;;2.40;;
11921;SDS011;6021;51.182;3.160;2023-02-17T06:11:51;2.90;;;2.50;;
11921;SDS011;6021;51.182;3.160;2023-02-17T06:14:19;4.73;;;3.10;;
11921;SDS011;6021;51.182;3.160;2023-02-17T06:16:48;3.17;;;2.87;;
11921;SDS011;6021;51.182;3.160;2023-02-17T06:19:16;3.47;;;2.83;;
11921;SDS011;6021;51.182;3.160;2023-02-17T06:21:44;2.80;;;2.60;;
11921;SDS011;6021;51.182;3.160;2023-02-17T06:24:13;3.90;;;2.93;;
11921;SDS011;6021;51.182;3.160;2023-02-17T06:26:41;3.87;;;2.77;;
11921;SDS011;6021;51.182;3.160;2023-02-17T06:29:10;2.90;;;2.70;;
11921;SDS011;6021;51.182;3.160;2023-02-17T06:31:38;3.10;;;2.80;;
11921;SDS011;6021;51.182;3.160;2023-02-17T06:34:06;3.67;;;3.37;;
11921;SDS011;6021;51.182;3.160;2023-02-17T06:36:35;4.20;;;3.20;;
11921;SDS011;6021;51.182;3.160;2023-02-17T06:39:03;4.63;;;3.60;;
11921;SDS011;6021;51.182;3.160;2023-02-17T06:41:32;3.93;;;3.63;;
11921;SDS011;6021;51.182;3.160;2023-02-17T06:44:00;4.33;;;3.93;;
11921;SDS011;6021;51.182;3.160;2023-02-17T06:46:28;4.50;;;4.10;;
11921;SDS011;6021;51.182;3.160;2023-02-17T06:48:57;4.60;;;4.20;;
11921;SDS011;6021;51.182;3.160;2023-02-17T06:51:27;4.13;;;3.73;;
11921;SDS011;6021;51.182;3.160;2023-02-17T06:53:56;4.40;;;4.00;;
11921;SDS011;6021;51.182;3.160;2023-02-17T06:56:26;4.30;;;3.90;;
11921;SDS011;6021;51.182;3.160;2023-02-17T06:59:00;4.07;;;3.77;;
11921;SDS011;6021;51.182;3.160;2023-02-17T07:01:24;4.03;;;3.73;;
11921;SDS011;6021;51.182;3.160;2023-02-17T07:03:55;4.80;;;4.30;;
11921;SDS011;6021;51.182;3.160;2023-02-17T07:06:25;4.13;;;3.77;;
11921;SDS011;6021;51.182;3.160;2023-02-17T07:08:54;5.10;;;4.60;;
11921;SDS011;6021;51.182;3.160;2023-02-17T07:11:24;4.60;;;3.83;;
11921;SDS011;6021;51.182;3.160;2023-02-17T07:13:54;4.17;;;3.87;;
11921;SDS011;6021;51.182;3.160;2023-02-17T07:16:23;4.63;;;3.27;;
11921;SDS011;6021;51.182;3.160;2023-02-17T07:18:54;4.93;;;4.53;;
11921;SDS011;6021;51.182;3.160;2023-02-17T07:21:23;4.63;;;4.23;;
11921;SDS011;6021;51.182;3.160;2023-02-17T07:24:01;4.83;;;4.43;;
11921;SDS011;6021;51.182;3.160;2023-02-17T07:26:25;4.70;;;4.30;;
11921;SDS011;6021;51.182;3.160;2023-02-17T07:28:54;4.73;;;4.30;;
11921;SDS011;6021;51.182;3.160;2023-02-17T07:31:27;4.67;;;4.27;;
11921;SDS011;6021;51.182;3.160;2023-02-17T07:33:59;4.83;;;4.40;;
11921;SDS011;6021;51.182;3.160;2023-02-17T07:36:32;5.67;;;4.43;;
11921;SDS011;6021;51.182;3.160;2023-02-17T07:39:04;5.33;;;4.60;;
11921;SDS011;6021;51.182;3.160;2023-02-17T07:41:41;6.23;;;5.53;;
11921;SDS011;6021;51.182;3.160;2023-02-17T07:44:11;5.10;;;4.67;;
11921;SDS011;6021;51.182;3.160;2023-02-17T07:46:40;4.90;;;3.73;;
11921;SDS011;6021;51.182;3.160;2023-02-17T07:49:08;5.93;;;3.73;;
11921;SDS011;6021;51.182;3.160;2023-02-17T07:51:37;5.57;;;4.90;;
11921;SDS011;6021;51.182;3.160;2023-02-17T07:54:06;5.83;;;5.13;;
11921;SDS011;6021;51.182;3.160;2023-02-17T07:56:42;5.20;;;4.70;;
11921;SDS011;6021;51.182;3.160;2023-02-17T07:59:25;6.57;;;4.97;;
11921;SDS011;6021;51.182;3.160;2023-02-17T08:01:54;5.03;;;4.57;;
11921;SDS011;6021;51.182;3.160;2023-02-17T08:04:24;5.37;;;4.87;;
11921;SDS011;6021;51.182;3.160;2023-02-17T08:07:15;5.20;;;4.70;;
11921;SDS011;6021;51.182;3.160;2023-02-17T08:09:46;5.13;;;4.63;;
11921;SDS011;6021;51.182;3.160;2023-02-17T08:12:31;5.80;;;5.30;;
11921;SDS011;6021;51.182;3.160;2023-02-17T08:15:16;6.27;;;5.67;;
11921;SDS011;6021;51.182;3.160;2023-02-17T08:17:47;6.30;;;5.60;;
11921;SDS011;6021;51.182;3.160;2023-02-17T08:20:15;5.90;;;5.30;;
11921;SDS011;6021;51.182;3.160;2023-02-17T08:22:44;6.17;;;5.57;;
11921;SDS011;6021;51.182;3.160;2023-02-17T08:25:14;6.37;;;5.30;;
11921;SDS011;6021;51.182;3.160;2023-02-17T08:27:44;5.97;;;4.17;;
11921;SDS011;6021;51.182;3.160;2023-02-17T08:30:12;7.63;;;5.33;;
11921;SDS011;6021;51.182;3.160;2023-02-17T08:32:41;6.60;;;5.40;;
11921;SDS011;6021;51.182;3.160;2023-02-17T08:35:12;5.40;;;4.57;;
11921;SDS011;6021;51.182;3.160;2023-02-17T08:37:41;7.17;;;4.77;;
11921;SDS011;6021;51.182;3.160;2023-02-17T08:40:09;6.73;;;4.80;;
11921;SDS011;6021;51.182;3.160;2023-02-17T08:42:38;5.63;;;4.67;;
11921;SDS011;6021;51.182;3.160;2023-02-17T08:45:06;5.60;;;4.57;;
11921;SDS011;6021;51.182;3.160;2023-02-17T08:47:35;5.83;;;4.43;;
11921;SDS011;6021;51.182;3.160;2023-02-17T08:50:04;5.87;;;4.53;;
11921;SDS011;6021;51.182;3.160;2023-02-17T08:52:33;6.77;;;4.00;;
11921;SDS011;6021;51.182;3.160;2023-02-17T08:55:02;4.20;;;3.20;;
11921;SDS011;6021;51.182;3.160;2023-02-17T08:57:33;3.83;;;3.20;;
11921;SDS011;6021;51.182;3.160;2023-02-17T09:00:04;4.23;;;3.20;;
11921;SDS011;6021;51.182;3.160;2023-02-17T09:02:33;4.53;;;2.83;;
11921;SDS011;6021;51.182;3.160;2023-02-17T09:05:03;4.23;;;2.80;;
11921;SDS011;6021;51.182;3.160;2023-02-17T09:07:32;3.60;;;2.80;;
11921;SDS011;6021;51.182;3.160;2023-02-17T09:10:00;4.10;;;3.10;;
11921;SDS011;6021;51.182;3.160;2023-02-17T09:12:30;5.87;;;2.93;;
11921;SDS011;6021;51.182;3.160;2023-02-17T09:15:00;4.87;;;3.33;;
11921;SDS011;6021;51.182;3.160;2023-02-17T09:17:28;4.83;;;2.90;;
11921;SDS011;6021;51.182;3.160;2023-02-17T09:19:57;5.37;;;3.47;;
11921;SDS011;6021;51.182;3.160;2023-02-17T09:22:25;4.97;;;3.77;;
11921;SDS011;6021;51.182;3.160;2023-02-17T09:24:54;5.07;;;3.10;;
11921;SDS011;6021;51.182;3.160;2023-02-17T09:27:26;5.17;;;3.73;;
11921;SDS011;6021;51.182;3.160;2023-02-17T09:29:56;3.80;;;2.90;;
11921;SDS011;6021;51.182;3.160;2023-02-17T09:32:25;4.57;;;3.07;;
11921;SDS011;6021;51.182;3.160;2023-02-17T09:34:55;3.67;;;2.63;;
11921;SDS011;6021;51.182;3.160;2023-02-17T09:37:26;4.47;;;3.40;;
11921;SDS011;6021;51.182;3.160;2023-02-17T09:39:54;5.23;;;3.00;;
11921;SDS011;6021;51.182;3.160;2023-02-17T09:42:23;4.80;;;2.70;;
11921;SDS011;6021;51.182;3.160;2023-02-17T09:47:55;4.13;;;3.00;;
11921;SDS011;6021;51.182;3.160;2023-02-17T09:53:14;6.93;;;4.60;;
11921;SDS011;6021;51.182;3.160;2023-02-17T09:55:50;5.57;;;4.30;;
11921;SDS011;6021;51.182;3.160;2023-02-17T09:58:22;4.67;;;3.40;;
11921;SDS011;6021;51.182;3.160;2023-02-17T10:01:01;4.97;;;4.10;;
11921;SDS011;6021;51.182;3.160;2023-02-17T10:03:56;6.20;;;4.43;;
11921;SDS011;6021;51.182;3.160;2023-02-17T10:06:14;4.03;;;3.40;;
11921;SDS011;6021;51.182;3.160;2023-02-17T10:08:47;4.40;;;3.03;;
11921;SDS011;6021;51.182;3.160;2023-02-17T10:13:58;4.20;;;3.03;;
11921;SDS011;6021;51.182;3.160;2023-02-17T10:16:29;3.63;;;2.57;;
11921;SDS011;6021;51.182;3.160;2023-02-17T10:19:14;4.50;;;2.67;;
11921;SDS011;6021;51.182;3.160;2023-02-17T10:21:50;4.40;;;2.33;;
11921;SDS011;6021;51.182;3.160;2023-02-17T10:24:30;3.97;;;2.60;;
11921;SDS011;6021;51.182;3.160;2023-02-17T10:27:06;4.10;;;2.50;;
11921;SDS011;6021;51.182;3.160;2023-02-17T10:29:46;4.23;;;2.40;;
11921;SDS011;6021;51.182;3.160;2023-02-17T10:32:30;4.23;;;2.33;;
11921;SDS011;6021;51.182;3.160;2023-02-17T10:35:11;3.67;;;2.30;;
11921;SDS011;6021;51.182;3.160;2023-02-17T10:40:19;4.47;;;2.07;;
11921;SDS011;6021;51.182;3.160;2023-02-17T10:42:50;3.23;;;2.00;;
11921;SDS011;6021;51.182;3.160;2023-02-17T10:47:58;3.47;;;2.10;;
11921;SDS011;6021;51.182;3.160;2023-02-17T10:50:28;5.27;;;2.10;;
11921;SDS011;6021;51.182;3.160;2023-02-17T10:52:57;5.90;;;2.53;;
11921;SDS011;6021;51.182;3.160;2023-02-17T10:55:37;2.47;;;1.70;;
11921;SDS011;6021;51.182;3.160;2023-02-17T10:58:10;2.93;;;1.53;;
11921;SDS011;6021;51.182;3.160;2023-02-17T11:00:48;3.43;;;1.60;;
11921;SDS011;6021;51.182;3.160;2023-02-17T11:03:28;3.00;;;1.60;;
11921;SDS011;6021;51.182;3.160;2023-02-17T11:06:13;5.23;;;1.97;;
11921;SDS011;6021;51.182;3.160;2023-02-17T11:09:19;4.87;;;2.10;;
11921;SDS011;6021;51.182;3.160;2023-02-17T11:11:13;3.70;;;1.53;;
11921;SDS011;6021;51.182;3.160;2023-02-17T11:17:01;2.10;;;1.50;;
11921;SDS011;6021;51.182;3.160;2023-02-17T11:19:28;2.77;;;1.90;;
11921;SDS011;6021;51.182;3.160;2023-02-17T11:22:29;4.87;;;1.90;;
11921;SDS011;6021;51.182;3.160;2023-02-17T11:24:33;4.23;;;1.97;;
11921;SDS011;6021;51.182;3.160;2023-02-17T11:27:09;3.27;;;1.70;;
11921;SDS011;6021;51.182;3.160;2023-02-17T11:29:38;3.03;;;1.50;;
11921;SDS011;6021;51.182;3.160;2023-02-17T11:32:07;5.80;;;1.60;;
11921;SDS011;6021;51.182;3.160;2023-02-17T11:34:40;3.43;;;1.47;;
11921;SDS011;6021;51.182;3.160;2023-02-17T11:39:45;5.83;;;1.77;;
11921;SDS011;6021;51.182;3.160;2023-02-17T11:42:16;2.70;;;1.50;;
11921;SDS011;6021;51.182;3.160;2023-02-17T11:44:57;6.10;;;1.70;;
11921;SDS011;6021;51.182;3.160;2023-02-17T11:47:48;3.43;;;1.70;;
11921;SDS011;6021;51.182;3.160;2023-02-17T11:50:21;2.80;;;1.50;;
11921;SDS011;6021;51.182;3.160;2023-02-17T11:52:57;3.57;;;1.40;;
11921;SDS011;6021;51.182;3.160;2023-02-17T12:01:37;2.30;;;1.10;;
11921;SDS011;6021;51.182;3.160;2023-02-17T12:04:24;2.17;;;1.47;;
11921;SDS011;6021;51.182;3.160;2023-02-17T12:10:33;3.40;;;1.37;;
11921;SDS011;6021;51.182;3.160;2023-02-17T12:16:17;4.33;;;1.73;;
11921;SDS011;6021;51.182;3.160;2023-02-17T12:21:42;5.40;;;1.30;;
11921;SDS011;6021;51.182;3.160;2023-02-17T12:29:58;3.43;;;1.70;;
11921;SDS011;6021;51.182;3.160;2023-02-17T12:32:43;2.87;;;1.60;;
11921;SDS011;6021;51.182;3.160;2023-02-17T12:35:22;1.87;;;1.23;;
11921;SDS011;6021;51.182;3.160;2023-02-17T12:38:12;2.90;;;1.30;;
11921;SDS011;6021;51.182;3.160;2023-02-17T12:41:34;3.13;;;1.47;;
11921;SDS011;6021;51.182;3.160;2023-02-17T12:43:24;2.60;;;1.30;;
11921;SDS011;6021;51.182;3.160;2023-02-17T12:45:55;4.00;;;1.30;;
11921;SDS011;6021;51.182;3.160;2023-02-17T12:48:35;3.20;;;1.10;;
11921;SDS011;6021;51.182;3.160;2023-02-17T12:51:17;1.33;;;1.10;;
11921;SDS011;6021;51.182;3.160;2023-02-17T12:53:56;1.87;;;1.10;;
11921;SDS011;6021;51.182;3.160;2023-02-17T12:59:17;2.53;;;1.20;;
11921;SDS011;6021;51.182;3.160;2023-02-17T13:02:18;3.43;;;1.27;;
11921;SDS011;6021;51.182;3.160;2023-02-17T13:04:23;3.57;;;1.43;;
11921;SDS011;6021;51.182;3.160;2023-02-17T13:10:18;3.67;;;1.40;;
11921;SDS011;6021;51.182;3.160;2023-02-17T13:13:08;3.07;;;1.37;;
11921;SDS011;6021;51.182;3.160;2023-02-17T13:16:05;3.17;;;1.23;;
11921;SDS011;6021;51.182;3.160;2023-02-17T13:18:33;2.07;;;1.40;;
11921;SDS011;6021;51.182;3.160;2023-02-17T13:24:03;3.10;;;1.30;;
11921;SDS011;6021;51.182;3.160;2023-02-17T13:26:40;2.47;;;1.40;;
11921;SDS011;6021;51.182;3.160;2023-02-17T13:29:17;3.27;;;1.50;;
11921;SDS011;6021;51.182;3.160;2023-02-17T13:31:55;1.93;;;1.30;;
11921;SDS011;6021;51.182;3.160;2023-02-17T13:34:29;3.17;;;1.40;;
11921;SDS011;6021;51.182;3.160;2023-02-17T13:39:44;5.27;;;1.40;;
11921;SDS011;6021;51.182;3.160;2023-02-17T13:45:00;2.13;;;1.30;;
11921;SDS011;6021;51.182;3.160;2023-02-17T13:47:33;3.13;;;1.40;;
11921;SDS011;6021;51.182;3.160;2023-02-17T13:50:02;1.40;;;1.13;;
11921;SDS011;6021;51.182;3.160;2023-02-17T13:52:31;2.30;;;1.53;;
11921;SDS011;6021;51.182;3.160;2023-02-17T13:55:02;3.07;;;1.50;;
11921;SDS011;6021;51.182;3.160;2023-02-17T13:57:32;4.37;;;1.30;;
11921;SDS011;6021;51.182;3.160;2023-02-17T14:00:15;2.20;;;1.20;;
11921;SDS011;6021;51.182;3.160;2023-02-17T14:02:49;3.10;;;1.40;;
11921;SDS011;6021;51.182;3.160;2023-02-17T14:08:06;3.03;;;1.33;;
11921;SDS011;6021;51.182;3.160;2023-02-17T14:10:40;4.70;;;1.50;;
11921;SDS011;6021;51.182;3.160;2023-02-17T14:13:14;4.50;;;1.70;;
11921;SDS011;6021;51.182;3.160;2023-02-17T14:15:56;3.47;;;1.50;;
11921;SDS011;6021;51.182;3.160;2023-02-17T14:18:30;4.73;;;1.90;;
11921;SDS011;6021;51.182;3.160;2023-02-17T14:21:01;4.63;;;1.67;;
11921;SDS011;6021;51.182;3.160;2023-02-17T14:23:41;4.87;;;1.97;;
11921;SDS011;6021;51.182;3.160;2023-02-17T14:26:34;2.97;;;1.87;;
11921;SDS011;6021;51.182;3.160;2023-02-17T14:29:02;4.43;;;2.10;;
11921;SDS011;6021;51.182;3.160;2023-02-17T14:31:26;5.40;;;2.00;;
11921;SDS011;6021;51.182;3.160;2023-02-17T14:33:59;4.13;;;1.80;;
11921;SDS011;6021;51.182;3.160;2023-02-17T14:36:30;5.63;;;1.90;;
11921;SDS011;6021;51.182;3.160;2023-02-17T14:39:03;4.80;;;2.00;;
11921;SDS011;6021;51.182;3.160;2023-02-17T14:41:33;7.70;;;2.00;;
11921;SDS011;6021;51.182;3.160;2023-02-17T14:44:01;5.40;;;2.20;;
11921;SDS011;6021;51.182;3.160;2023-02-17T14:46:31;6.70;;;2.10;;
11921;SDS011;6021;51.182;3.160;2023-02-17T14:49:00;5.47;;;2.20;;
11921;SDS011;6021;51.182;3.160;2023-02-17T14:51:31;7.00;;;2.30;;
11921;SDS011;6021;51.182;3.160;2023-02-17T14:54:02;7.53;;;2.43;;
11921;SDS011;6021;51.182;3.160;2023-02-17T14:56:37;5.60;;;2.70;;
11921;SDS011;6021;51.182;3.160;2023-02-17T14:59:24;6.90;;;3.10;;
11921;SDS011;6021;51.182;3.160;2023-02-17T15:01:52;5.57;;;4.17;;
11921;SDS011;6021;51.182;3.160;2023-02-17T15:04:23;5.57;;;4.60;;
11921;SDS011;6021;51.182;3.160;2023-02-17T15:06:51;7.97;;;4.50;;
11921;SDS011;6021;51.182;3.160;2023-02-17T15:09:23;7.57;;;4.23;;
11921;SDS011;6021;51.182;3.160;2023-02-17T15:11:51;4.17;;;3.77;;
11921;SDS011;6021;51.182;3.160;2023-02-17T15:14:20;8.97;;;5.60;;
11921;SDS011;6021;51.182;3.160;2023-02-17T15:16:49;9.50;;;5.23;;
11921;SDS011;6021;51.182;3.160;2023-02-17T15:19:17;10.20;;;7.07;;
11921;SDS011;6021;51.182;3.160;2023-02-17T15:21:49;12.63;;;7.83;;
11921;SDS011;6021;51.182;3.160;2023-02-17T15:24:22;12.23;;;8.00;;
11921;SDS011;6021;51.182;3.160;2023-02-17T15:26:51;10.67;;;7.27;;
11921;SDS011;6021;51.182;3.160;2023-02-17T15:29:21;8.63;;;6.80;;
11921;SDS011;6021;51.182;3.160;2023-02-17T15:31:51;12.47;;;7.03;;
11921;SDS011;6021;51.182;3.160;2023-02-17T15:34:21;8.93;;;6.30;;
11921;SDS011;6021;51.182;3.160;2023-02-17T15:36:51;12.07;;;5.80;;
11921;SDS011;6021;51.182;3.160;2023-02-17T15:39:20;8.27;;;4.90;;
11921;SDS011;6021;51.182;3.160;2023-02-17T15:41:48;9.17;;;4.90;;
11921;SDS011;6021;51.182;3.160;2023-02-17T15:44:22;11.57;;;4.80;;
11921;SDS011;6021;51.182;3.160;2023-02-17T15:46:50;8.73;;;4.50;;
11921;SDS011;6021;51.182;3.160;2023-02-17T15:49:20;7.60;;;4.50;;
11921;SDS011;6021;51.182;3.160;2023-02-17T15:51:49;7.10;;;4.27;;
11921;SDS011;6021;51.182;3.160;2023-02-17T15:54:17;12.37;;;4.30;;
11921;SDS011;6021;51.182;3.160;2023-02-17T15:56:47;9.10;;;4.27;;
11921;SDS011;6021;51.182;3.160;2023-02-17T15:59:21;7.83;;;4.53;;
11921;SDS011;6021;51.182;3.160;2023-02-17T16:01:51;8.80;;;4.47;;
11921;SDS011;6021;51.182;3.160;2023-02-17T16:04:25;8.37;;;4.93;;
11921;SDS011;6021;51.182;3.160;2023-02-17T16:06:59;9.80;;;5.37;;
11921;SDS011;6021;51.182;3.160;2023-02-17T16:09:24;11.27;;;5.43;;
11921;SDS011;6021;51.182;3.160;2023-02-17T16:11:53;10.03;;;5.03;;
11921;SDS011;6021;51.182;3.160;2023-02-17T16:14:24;10.10;;;5.37;;
11921;SDS011;6021;51.182;3.160;2023-02-17T16:17:00;12.53;;;5.30;;
11921;SDS011;6021;51.182;3.160;2023-02-17T16:19:29;9.97;;;5.37;;
11921;SDS011;6021;51.182;3.160;2023-02-17T16:21:58;12.23;;;5.43;;
11921;SDS011;6021;51.182;3.160;2023-02-17T16:24:27;8.77;;;5.40;;
11921;SDS011;6021;51.182;3.160;2023-02-17T16:26:55;10.40;;;5.23;;
11921;SDS011;6021;51.182;3.160;2023-02-17T16:29:24;9.20;;;5.10;;
11921;SDS011;6021;51.182;3.160;2023-02-17T16:31:54;8.53;;;4.80;;
11921;SDS011;6021;51.182;3.160;2023-02-17T16:34:23;11.83;;;5.10;;
11921;SDS011;6021;51.182;3.160;2023-02-17T16:36:52;10.07;;;5.10;;
11921;SDS011;6021;51.182;3.160;2023-02-17T16:39:22;10.77;;;4.57;;
11921;SDS011;6021;51.182;3.160;2023-02-17T16:41:50;10.13;;;4.90;;
11921;SDS011;6021;51.182;3.160;2023-02-17T16:44:20;10.63;;;4.20;;